Time;durP1;ratioP1;P1;durP2;ratioP2;P2;SDS_P1;SDS_P2;PMS_P1;PMS_P2;Temp;Humidity;BMP_temperature;BMP_pressure;BME280_temperature;BME280_humidity;BME280_pressure;Samples;Min_cycle;Max_cycle;Signal;HPM_P1;HPM_P2
2023/07/06 00:01:04;;;;;;;8.70;6.30;;;21.20;99.90;;;21.53;69.77;94914.41;4966707;28;20514;-63
2023/07/06 00:03:32;;;;;;;6.23;5.63;;;21.10;99.90;;;21.47;69.77;94907.97;4962682;28;20448;-64
2023/07/06 00:06:02;;;;;;;20.00;6.47;;;21.00;99.90;;;21.42;70.35;94903.25;4964679;28;20564;-65
2023/07/06 00:08:29;;;;;;;8.77;7.23;;;21.00;99.90;;;21.41;70.63;94906.97;4964055;28;20455;-64
2023/07/06 00:10:59;;;;;;;7.43;6.50;;;21.00;99.90;;;21.43;71.00;94907.56;4964273;28;20478;-66
2023/07/06 00:13:29;;;;;;;14.57;6.77;;;21.00;99.90;;;21.46;71.55;94909.84;4959683;28;20486;-64
2023/07/06 00:15:59;;;;;;;6.23;5.63;;;21.00;99.90;;;21.48;70.92;94910.44;4961576;28;21019;-63
2023/07/06 00:18:28;;;;;;;7.70;7.00;;;21.00;99.90;;;21.48;70.60;94904.28;4959412;28;20492;-64
2023/07/06 00:20:57;;;;;;;9.73;6.87;;;21.00;99.90;;;21.49;71.23;94904.09;4956881;28;20533;-63
2023/07/06 00:23:26;;;;;;;6.90;6.20;;;21.00;99.90;;;21.52;71.47;94907.38;4963159;28;20466;-63
2023/07/06 00:25:54;;;;;;;15.43;6.93;;;21.10;99.90;;;21.55;71.54;94906.97;4961267;28;20472;-64
2023/07/06 00:28:24;;;;;;;7.80;7.10;;;21.10;99.90;;;21.58;71.77;94890.50;4962025;28;20923;-64
2023/07/06 00:31:01;;;;;;;11.77;6.20;;;21.10;99.90;;;21.59;71.90;94897.50;4959864;28;20499;-65
2023/07/06 00:33:29;;;;;;;9.70;6.03;;;21.10;99.90;;;21.61;72.04;94890.09;4964729;28;21070;-62
2023/07/06 00:35:57;;;;;;;18.97;8.60;;;21.20;99.90;;;21.61;71.39;94884.72;4972394;28;20480;-64
2023/07/06 00:38:29;;;;;;;9.30;7.30;;;21.20;99.90;;;21.59;71.35;94887.63;5008297;28;20444;-64
2023/07/06 00:40:57;;;;;;;7.40;6.20;;;21.20;99.90;;;21.59;71.83;94897.50;4974072;28;20498;-63
2023/07/06 00:43:26;;;;;;;17.50;6.93;;;21.20;99.90;;;21.59;71.43;94892.97;4968774;28;21002;-65
2023/07/06 00:45:56;;;;;;;10.83;6.70;;;21.20;99.90;;;21.59;71.82;94884.94;4973849;28;20483;-63
2023/07/06 00:48:27;;;;;;;8.37;7.43;;;21.20;99.90;;;21.62;72.14;94879.16;4980708;28;20846;-65
2023/07/06 00:50:57;;;;;;;7.33;6.70;;;21.20;99.90;;;21.63;71.99;94882.69;4970354;28;21042;-64
2023/07/06 00:53:27;;;;;;;8.67;7.17;;;21.20;99.90;;;21.64;71.92;94878.97;4980205;28;20498;-64
2023/07/06 00:55:58;;;;;;;8.73;6.90;;;21.20;99.90;;;21.63;71.94;94878.16;4964623;28;21030;-64
2023/07/06 00:58:28;;;;;;;7.83;7.07;;;21.20;99.90;;;21.62;72.00;94889.88;4984146;28;20525;-65
2023/07/06 01:00:58;;;;;;;11.67;7.13;;;21.20;99.90;;;21.61;72.77;94885.56;4982165;28;20581;-64
2023/07/06 01:03:25;;;;;;;11.10;6.87;;;21.20;99.90;;;21.62;72.50;94876.50;4987244;28;20533;-62
2023/07/06 01:05:53;;;;;;;10.70;7.63;;;21.20;99.90;;;21.63;72.02;94877.34;4965614;28;20478;-63
2023/07/06 01:08:22;;;;;;;10.17;7.57;;;21.20;99.90;;;21.64;72.30;94873.59;4965550;28;21222;-64
2023/07/06 01:10:49;;;;;;;10.63;7.17;;;21.20;99.90;;;21.64;72.22;94873.59;4965151;28;20464;-63
2023/07/06 01:13:19;;;;;;;9.17;7.30;;;21.20;99.90;;;21.64;72.26;94873.59;4962016;28;20543;-64
2023/07/06 01:15:50;;;;;;;8.33;6.63;;;21.20;99.90;;;21.63;72.61;94872.78;4962162;28;21038;-63
2023/07/06 01:18:22;;;;;;;16.83;8.47;;;21.20;99.90;;;21.62;72.23;94864.97;4960787;28;20455;-63
2023/07/06 01:20:53;;;;;;;8.63;7.30;;;21.20;99.90;;;21.61;72.85;94868.66;4959574;28;20475;-64
2023/07/06 01:23:45;;;;;;;15.60;7.10;;;21.20;99.90;;;21.60;72.74;94867.03;4957592;28;20869;-63
2023/07/06 01:26:19;;;;;;;9.63;7.23;;;21.20;99.90;;;21.60;72.64;94872.41;4964646;28;20517;-63
2023/07/06 01:29:27;;;;;;;8.67;7.43;;;21.20;99.90;;;21.60;72.82;94867.84;4961842;28;20884;-63
2023/07/06 01:31:55;;;;;;;9.30;7.07;;;21.10;99.90;;;21.60;72.59;94878.56;4974148;28;20482;-64
2023/07/06 01:34:27;;;;;;;11.77;7.77;;;21.10;99.90;;;21.60;73.10;94872.41;4973598;28;20491;-63
2023/07/06 01:36:59;;;;;;;7.93;7.03;;;21.20;99.90;;;21.59;72.58;94870.75;4965506;28;20554;-62
2023/07/06 01:39:27;;;;;;;13.10;6.90;;;21.10;99.90;;;21.57;72.87;94867.47;4982512;28;20545;-64
2023/07/06 01:42:25;;;;;;;7.90;6.77;;;21.10;99.90;;;21.53;72.54;94860.88;4981385;28;20456;-63
2023/07/06 01:44:53;;;;;;;15.43;6.40;;;21.10;99.90;;;21.47;72.14;94863.31;4962117;28;20483;-64
2023/07/06 01:47:21;;;;;;;8.40;6.23;;;21.10;99.90;;;21.43;72.33;94867.44;4962014;28;20952;-65
2023/07/06 01:49:49;;;;;;;14.00;6.43;;;21.00;99.90;;;21.38;71.92;94877.09;4989115;28;20590;-65
2023/07/06 01:52:20;;;;;;;9.03;6.90;;;21.00;99.90;;;21.33;72.13;94877.72;4988438;28;20459;-64
2023/07/06 01:54:58;;;;;;;8.30;6.77;;;20.90;99.90;;;21.29;72.08;94868.47;4983552;28;20492;-64
2023/07/06 01:57:29;;;;;;;12.90;7.60;;;20.90;99.90;;;21.23;71.95;94864.78;4964872;28;20838;-64
2023/07/06 01:59:57;;;;;;;12.93;6.83;;;20.80;99.90;;;21.19;72.29;94874.22;4958186;28;21016;-63
2023/07/06 02:02:26;;;;;;;15.23;6.30;;;20.80;99.90;;;21.16;72.27;94873.81;4965544;28;20944;-63
2023/07/06 02:04:55;;;;;;;11.30;6.80;;;20.70;99.90;;;21.10;71.97;94870.94;4985742;28;20486;-63
2023/07/06 02:07:22;;;;;;;10.17;6.73;;;20.70;99.90;;;21.06;72.50;94877.72;4973123;28;20976;-64
2023/07/06 02:09:51;;;;;;;7.70;5.43;;;20.70;99.90;;;21.02;72.45;94876.50;5004964;28;20483;-62
2023/07/06 02:12:18;;;;;;;10.40;7.37;;;20.60;99.90;;;20.97;72.34;94873.59;4965203;28;21038;-65
2023/07/06 02:14:48;;;;;;;10.40;7.67;;;20.60;99.90;;;20.93;72.46;94877.75;4958970;28;20472;-61
2023/07/06 02:17:15;;;;;;;9.83;7.23;;;20.50;99.90;;;20.88;72.46;94869.47;4958555;28;20459;-64
2023/07/06 02:19:44;;;;;;;8.60;7.00;;;20.50;99.90;;;20.87;72.54;94870.53;4964670;28;20940;-64
2023/07/06 02:22:12;;;;;;;10.27;8.20;;;20.50;99.90;;;20.82;72.60;94864.94;4967163;28;20463;-63
2023/07/06 02:24:39;;;;;;;15.93;6.57;;;20.40;99.90;;;20.80;72.92;94872.34;4973509;28;20536;-65
2023/07/06 02:27:09;;;;;;;8.40;6.90;;;20.40;99.90;;;20.77;72.98;94869.06;4970997;28;20452;-64
2023/07/06 02:29:37;;;;;;;13.23;6.30;;;20.40;99.90;;;20.74;72.93;94866.81;4966556;28;20472;-63
2023/07/06 02:32:06;;;;;;;9.43;6.93;;;20.40;99.90;;;20.74;73.23;94864.13;4970784;28;20452;-63
2023/07/06 02:34:33;;;;;;;14.13;6.93;;;20.30;99.90;;;20.73;73.23;94859.00;4970168;28;20529;-63
2023/07/06 02:37:02;;;;;;;12.67;7.67;;;20.30;99.90;;;20.71;73.71;94861.88;4964891;28;20456;-63
2023/07/06 02:39:30;;;;;;;12.50;7.50;;;20.30;99.90;;;20.70;73.27;94857.53;4964334;28;20487;-64
2023/07/06 02:41:57;;;;;;;10.63;7.80;;;20.30;99.90;;;20.69;73.62;94852.41;4975400;28;20875;-64
2023/07/06 02:44:25;;;;;;;7.73;6.90;;;20.30;99.90;;;20.67;73.66;94852.59;4974750;28;20537;-65
2023/07/06 02:46:52;;;;;;;10.07;7.80;;;20.20;99.90;;;20.67;73.68;94854.47;4969527;28;20546;-65
2023/07/06 02:49:20;;;;;;;9.57;7.33;;;20.20;99.90;;;20.66;73.45;94850.94;4965415;28;21014;-65
2023/07/06 02:51:47;;;;;;;7.93;6.40;;;20.20;99.90;;;20.65;74.22;94857.34;4980012;28;20464;-64
2023/07/06 02:54:16;;;;;;;9.47;6.97;;;20.20;99.90;;;20.66;73.79;94858.16;4965049;28;20593;-64
2023/07/06 02:56:43;;;;;;;8.33;7.50;;;20.20;99.90;;;20.65;74.13;94859.16;4981410;28;20517;-64
2023/07/06 02:59:10;;;;;;;19.33;7.83;;;20.20;99.90;;;20.65;74.13;94860.00;4998107;28;20493;-64
2023/07/06 03:01:38;;;;;;;8.50;7.27;;;20.20;99.90;;;20.66;74.19;94853.63;4961177;28;20487;-64
2023/07/06 03:04:10;;;;;;;8.80;7.20;;;20.20;99.90;;;20.68;74.13;94861.44;4991273;28;20464;-63
2023/07/06 03:06:38;;;;;;;14.80;7.63;;;20.20;99.90;;;20.67;74.07;94857.94;4964350;28;20456;-64
2023/07/06 03:09:05;;;;;;;9.23;8.20;;;20.30;99.90;;;20.69;74.09;94845.19;4972204;28;20475;-64
2023/07/06 03:11:34;;;;;;;12.90;8.10;;;20.30;99.90;;;20.71;74.19;94853.00;4971070;28;20541;-64
2023/07/06 03:14:03;;;;;;;7.90;6.73;;;20.30;99.90;;;20.73;73.97;94850.97;4976343;28;20942;-64
2023/07/06 03:16:39;;;;;;;8.03;7.23;;;20.30;99.90;;;20.75;74.10;94852.41;4964444;28;20546;-64
2023/07/06 03:19:08;;;;;;;12.87;7.70;;;20.30;99.90;;;20.75;74.21;94846.25;4961929;28;20451;-64
2023/07/06 03:21:37;;;;;;;9.30;6.83;;;20.40;99.90;;;20.79;74.18;94844.81;4972045;28;20904;-66
2023/07/06 03:24:06;;;;;;;8.50;7.00;;;20.40;99.90;;;20.80;74.12;94848.31;4969160;28;20492;-65
2023/07/06 03:26:35;;;;;;;16.10;6.87;;;20.40;99.90;;;20.83;74.15;94839.88;4982121;28;20882;-64
2023/07/06 03:29:03;;;;;;;26.87;7.03;;;20.40;99.90;;;20.84;74.25;94841.53;4992648;28;21488;-61
2023/07/06 03:31:32;;;;;;;8.63;6.73;;;20.40;99.90;;;20.87;73.91;94841.13;4970762;28;20921;-63
2023/07/06 03:33:59;;;;;;;14.67;8.03;;;20.40;99.90;;;20.89;73.70;94850.56;4971381;28;21079;-63
2023/07/06 03:36:27;;;;;;;8.50;7.47;;;20.50;99.90;;;20.92;73.70;94847.47;4971074;28;20459;-65
2023/07/06 03:38:54;;;;;;;7.13;6.37;;;20.50;99.90;;;20.94;73.57;94852.63;4966460;28;20473;-65
2023/07/06 03:41:21;;;;;;;8.07;7.20;;;20.50;99.90;;;20.95;73.65;94849.75;4976908;28;20491;-64
2023/07/06 03:43:51;;;;;;;12.23;7.70;;;20.60;99.90;;;20.98;73.65;94847.72;4978752;28;20498;-63
2023/07/06 03:46:19;;;;;;;10.70;8.67;;;20.50;99.90;;;20.99;73.66;94850.19;4991061;28;20474;-66
2023/07/06 03:48:47;;;;;;;10.57;6.97;;;20.60;99.90;;;21.02;73.65;94843.56;4985353;28;20483;-63
2023/07/06 03:51:14;;;;;;;11.23;6.63;;;20.60;99.90;;;21.04;73.65;94844.22;4960590;28;20460;-64
2023/07/06 03:53:41;;;;;;;14.47;8.17;;;20.60;99.90;;;21.07;73.68;94844.63;5006008;28;20490;-62
2023/07/06 03:56:10;;;;;;;13.60;7.40;;;20.60;99.90;;;21.11;73.83;94851.19;4969927;28;20589;-63
2023/07/06 03:58:38;;;;;;;10.40;7.67;;;20.70;99.90;;;21.16;73.62;94852.44;4966723;28;20463;-65
2023/07/06 04:01:07;;;;;;;10.03;7.60;;;20.70;99.90;;;21.20;73.33;94845.66;4965643;28;20483;-65
2023/07/06 04:03:35;;;;;;;12.30;8.70;;;20.70;99.90;;;21.23;73.48;94842.56;4966200;28;20460;-64
2023/07/06 04:06:03;;;;;;;15.13;9.00;;;20.80;99.90;;;21.27;73.62;94838.41;4966824;28;20498;-66
2023/07/06 04:08:30;;;;;;;8.37;7.50;;;20.80;99.90;;;21.31;73.39;94842.34;4967544;28;20456;-66
2023/07/06 04:10:58;;;;;;;8.30;7.20;;;20.90;99.90;;;21.36;73.33;94852.41;4966505;28;20995;-66
2023/07/06 04:13:25;;;;;;;8.40;7.50;;;20.90;99.90;;;21.42;73.32;94854.25;4966037;28;20505;-64
2023/07/06 04:15:53;;;;;;;9.00;7.17;;;21.00;99.90;;;21.46;73.23;94844.81;4994920;28;21124;-64
2023/07/06 04:18:21;;;;;;;13.57;7.90;;;21.00;99.90;;;21.53;73.25;94852.84;4981631;28;20496;-64
2023/07/06 04:20:49;;;;;;;9.57;8.60;;;21.10;99.90;;;21.60;73.39;94846.44;5013206;28;20488;-63
2023/07/06 04:23:17;;;;;;;11.57;9.27;;;21.20;99.90;;;21.67;73.51;94852.63;4998905;28;20552;-64
2023/07/06 04:25:44;;;;;;;11.80;7.83;;;21.20;99.90;;;21.74;73.44;94851.78;4983848;28;20499;-65
2023/07/06 04:28:13;;;;;;;11.13;7.33;;;21.30;99.90;;;21.81;73.05;94848.06;4966563;28;20487;-63
2023/07/06 04:30:42;;;;;;;10.30;7.90;;;21.40;99.90;;;21.92;72.60;94848.41;4961943;28;20487;-64
2023/07/06 04:33:12;;;;;;;16.83;8.60;;;21.50;99.90;;;22.00;72.93;94848.22;4965092;28;20505;-64
2023/07/06 04:35:41;;;;;;;11.97;7.93;;;21.50;99.90;;;22.08;72.20;94844.47;5007557;28;20487;-64
2023/07/06 04:38:08;;;;;;;9.33;7.93;;;21.60;99.90;;;22.15;72.47;94839.88;4965718;28;20464;-63
2023/07/06 04:40:35;;;;;;;17.10;8.53;;;21.70;99.90;;;22.25;71.68;94837.59;4963663;28;20483;-64
2023/07/06 04:43:03;;;;;;;13.60;8.50;;;21.80;99.90;;;22.33;71.45;94839.22;4967711;28;22525;-64
2023/07/06 04:45:30;;;;;;;10.37;8.87;;;21.80;99.90;;;22.40;71.33;94834.63;4990378;28;20487;-64
2023/07/06 04:47:58;;;;;;;15.03;8.37;;;21.90;99.90;;;22.47;71.66;94837.31;4961143;28;20461;-66
2023/07/06 04:50:27;;;;;;;13.93;9.40;;;22.00;99.90;;;22.54;71.60;94846.94;4994234;28;20995;-63
2023/07/06 04:52:58;;;;;;;10.97;8.13;;;22.10;99.90;;;22.62;70.68;94853.06;4973156;28;20471;-63
2023/07/06 04:55:27;;;;;;;14.97;8.77;;;22.10;99.90;;;22.69;70.95;94856.56;4992527;28;20499;-66
2023/07/06 04:57:56;;;;;;;10.90;7.30;;;22.20;99.90;;;22.75;70.44;94850.31;4978112;28;20463;-63
2023/07/06 05:00:25;;;;;;;12.67;8.10;;;22.30;99.90;;;22.81;70.04;94851.34;4989685;28;20549;-64
2023/07/06 05:02:53;;;;;;;13.43;7.83;;;22.30;99.90;;;22.88;70.47;94852.94;4994442;28;21037;-64
2023/07/06 05:05:22;;;;;;;11.83;8.10;;;22.40;99.90;;;22.94;70.31;94859.28;4992161;28;20504;-65
2023/07/06 05:07:50;;;;;;;16.27;8.23;;;22.50;99.90;;;23.00;69.78;94855.72;5007306;28;20880;-63
2023/07/06 05:10:19;;;;;;;13.70;8.07;;;22.50;99.90;;;23.06;70.03;94867.44;4966772;28;20467;-66
2023/07/06 05:12:46;;;;;;;16.17;7.30;;;22.60;99.90;;;23.12;69.78;94863.94;4966284;28;20456;-64
2023/07/06 05:15:14;;;;;;;11.80;7.07;;;22.60;99.90;;;23.18;69.36;94862.25;4986845;28;20575;-65
2023/07/06 05:17:41;;;;;;;18.03;7.80;;;22.70;99.90;;;23.21;68.67;94873.34;4988666;28;20463;-62
2023/07/06 05:20:13;;;;;;;9.43;7.07;;;22.70;99.90;;;23.25;68.40;94879.94;4970260;28;20541;-65
2023/07/06 05:22:42;;;;;;;11.23;7.93;;;22.80;99.90;;;23.26;68.99;94876.19;4977021;28;20521;-64
2023/07/06 05:25:10;;;;;;;10.30;8.27;;;22.80;99.90;;;23.31;68.71;94880.09;4975026;28;20489;-64
2023/07/06 05:27:39;;;;;;;14.07;9.40;;;22.80;99.90;;;23.35;68.88;94874.06;5013269;28;20537;-65
2023/07/06 05:30:07;;;;;;;16.53;7.17;;;22.90;99.90;;;23.39;68.26;94874.44;4960451;28;20980;-66
2023/07/06 05:32:34;;;;;;;9.83;7.40;;;22.90;99.90;;;23.43;68.07;94870.28;4976991;28;21010;-64
2023/07/06 05:35:02;;;;;;;13.90;8.17;;;22.90;99.90;;;23.48;68.50;94870.44;4964338;28;20506;-64
2023/07/06 05:37:29;;;;;;;12.13;8.47;;;23.00;99.90;;;23.55;68.13;94873.91;4961857;28;20869;-65
2023/07/06 05:39:56;;;;;;;13.50;7.47;;;23.10;99.90;;;23.65;68.06;94872.56;4958982;28;20483;-63
2023/07/06 05:42:24;;;;;;;13.60;7.53;;;23.10;99.90;;;23.77;67.71;94881.53;4960389;28;20458;-63
2023/07/06 05:44:53;;;;;;;11.87;8.00;;;23.20;99.90;;;23.93;67.16;94883.66;4977093;28;21026;-63
2023/07/06 05:47:20;;;;;;;8.93;8.13;;;23.40;99.90;;;24.08;67.55;94887.88;4982931;28;20460;-64
2023/07/06 05:49:47;;;;;;;11.60;6.87;;;23.50;99.90;;;24.24;66.59;94891.81;4982773;28;20502;-64
2023/07/06 05:52:15;;;;;;;8.73;7.87;;;23.60;99.90;;;24.39;66.75;94889.56;4978260;28;20470;-65
2023/07/06 05:54:42;;;;;;;8.83;7.17;;;23.80;99.90;;;24.55;66.21;94890.78;4975550;28;20521;-64
2023/07/06 05:57:10;;;;;;;12.70;6.20;;;23.90;99.90;;;24.73;65.73;94889.16;4968774;28;20601;-65
2023/07/06 05:59:41;;;;;;;11.50;6.47;;;24.10;99.90;;;24.87;65.00;94890.63;4981896;28;20470;-63
2023/07/06 06:02:12;;;;;;;7.73;6.90;;;24.20;99.90;;;25.03;64.83;94886.44;4958571;28;20451;-64
2023/07/06 06:04:40;;;;;;;6.60;6.00;;;24.40;99.90;;;25.19;64.37;94880.41;4964762;28;20478;-64
2023/07/06 06:07:08;;;;;;;6.00;5.40;;;24.60;99.90;;;25.33;63.39;94888.28;4960759;28;20460;-64
2023/07/06 06:09:36;;;;;;;6.93;5.03;;;24.70;99.90;;;25.44;63.31;94883.97;4965100;28;20467;-65
2023/07/06 06:12:04;;;;;;;7.07;6.43;;;24.80;99.90;;;25.56;62.90;94888.34;4976515;28;20463;-64
2023/07/06 06:14:32;;;;;;;6.13;5.40;;;24.90;99.90;;;25.69;62.45;94886.47;4958850;28;20491;-66
2023/07/06 06:17:00;;;;;;;9.73;5.37;;;25.10;99.90;;;25.83;62.23;94881.69;4971869;28;20450;-65
2023/07/06 06:19:31;;;;;;;16.20;6.30;;;25.20;99.90;;;25.94;61.90;94880.84;5000862;28;20491;-64
2023/07/06 06:21:59;;;;;;;6.63;6.03;;;25.30;99.90;;;26.08;61.51;94884.13;4966088;28;20458;-64
2023/07/06 06:24:27;;;;;;;7.87;6.20;;;25.40;99.90;;;26.24;61.24;94883.41;4956070;28;20468;-64
2023/07/06 06:26:55;;;;;;;6.47;5.87;;;25.60;99.90;;;26.41;61.19;94880.75;4954995;28;20447;-63
2023/07/06 06:29:22;;;;;;;8.70;5.37;;;25.70;99.90;;;26.60;60.39;94883.28;4957184;28;20483;-64
2023/07/06 06:31:50;;;;;;;11.10;5.37;;;25.90;99.90;;;26.76;60.03;94879.88;4956497;28;20451;-60
2023/07/06 06:34:17;;;;;;;6.47;5.87;;;26.10;99.90;;;26.93;59.23;94877.22;4955860;28;20891;-63
2023/07/06 06:36:47;;;;;;;10.00;5.73;;;26.20;99.90;;;27.08;58.91;94876.69;4956828;28;20471;-63
2023/07/06 06:39:14;;;;;;;5.50;5.10;;;26.40;99.90;;;27.23;58.20;94875.28;4958208;28;20479;-66
2023/07/06 06:41:43;;;;;;;6.80;5.03;;;26.50;99.90;;;27.35;58.38;94878.78;4956443;28;20455;-63
2023/07/06 06:44:12;;;;;;;5.97;5.47;;;26.70;99.90;;;27.46;57.59;94872.47;4954371;28;20468;-63
2023/07/06 06:46:39;;;;;;;6.10;5.20;;;26.80;99.90;;;27.61;57.42;94871.09;4958987;28;20440;-63
2023/07/06 06:49:07;;;;;;;6.57;5.10;;;26.90;99.70;;;27.78;56.99;94869.19;4970287;28;21015;-63
2023/07/06 06:51:34;;;;;;;6.90;5.00;;;27.00;99.40;;;27.98;56.48;94867.84;5001115;28;20536;-64
2023/07/06 06:54:03;;;;;;;5.90;5.20;;;27.30;99.30;;;28.15;56.48;94863.22;4988557;28;20553;-64
2023/07/06 06:56:31;;;;;;;5.93;5.30;;;27.40;99.00;;;28.32;55.48;94859.63;4959610;28;20459;-64
2023/07/06 06:58:58;;;;;;;5.90;5.40;;;27.60;98.50;;;28.40;55.03;94857.31;4964265;28;20461;-63
2023/07/06 07:01:26;;;;;;;5.43;4.30;;;27.70;98.00;;;28.47;54.83;94862.53;4963535;28;20546;-64
2023/07/06 07:03:53;;;;;;;11.03;5.63;;;27.80;97.70;;;28.60;55.36;94859.47;4963328;28;20455;-64
2023/07/06 07:06:22;;;;;;;6.50;4.40;;;27.90;97.40;;;28.77;54.58;94856.69;4964104;28;20458;-65
2023/07/06 07:08:50;;;;;;;6.13;5.33;;;28.00;97.10;;;28.97;53.86;94856.06;4962555;28;20455;-63
2023/07/06 07:11:19;;;;;;;4.60;4.20;;;28.30;96.80;;;29.17;53.58;94860.03;4963936;28;20477;-64
2023/07/06 07:13:47;;;;;;;5.30;4.57;;;28.40;96.10;;;29.36;52.28;94854.25;4963670;28;20542;-63
2023/07/06 07:16:14;;;;;;;5.03;4.53;;;28.60;95.50;;;29.55;52.06;94858.22;4964186;28;20204;-65
2023/07/06 07:18:43;;;;;;;5.80;4.83;;;28.80;95.10;;;29.66;52.19;94859.91;4964091;28;20208;-63
2023/07/06 07:21:10;;;;;;;9.43;5.47;;;29.00;94.60;;;29.68;51.88;94856.94;4963846;28;20604;-64
2023/07/06 07:23:41;;;;;;;7.97;4.73;;;29.00;94.20;;;29.74;51.30;94855.09;4957239;28;20254;-65
2023/07/06 07:26:09;;;;;;;5.33;4.93;;;29.00;94.10;;;29.83;51.51;94853.56;4958075;28;20227;-63
2023/07/06 07:28:38;;;;;;;4.80;4.40;;;29.10;94.20;;;30.00;50.32;94859.63;4957688;28;20267;-65
2023/07/06 07:31:07;;;;;;;4.40;4.10;;;29.30;93.30;;;30.18;50.92;94842.09;4959966;28;20314;-64
2023/07/06 07:33:34;;;;;;;5.23;4.73;;;29.40;93.20;;;30.35;50.80;94850.03;4955092;28;20265;-64
2023/07/06 07:36:03;;;;;;;4.20;3.87;;;29.60;93.20;;;30.53;49.78;94856.09;4957696;28;20384;-64
2023/07/06 07:38:30;;;;;;;5.10;4.60;;;29.80;92.70;;;30.67;49.38;94849.09;4959290;28;20307;-65
2023/07/06 07:40:59;;;;;;;6.30;4.50;;;29.90;91.90;;;30.83;48.97;94849.97;4956517;28;20224;-66
2023/07/06 07:43:28;;;;;;;4.80;4.40;;;30.10;91.10;;;30.95;48.48;94849.69;4957475;28;20632;-64
2023/07/06 07:45:57;;;;;;;5.03;4.60;;;30.20;90.70;;;30.95;47.95;94844.25;4955963;28;20716;-65
2023/07/06 07:48:25;;;;;;;9.13;4.50;;;30.30;90.40;;;30.84;48.32;94848.84;4963392;28;20207;-62
2023/07/06 07:50:56;;;;;;;4.97;4.50;;;30.20;90.00;;;30.85;47.80;94849.69;4960624;28;20673;-64
2023/07/06 07:53:25;;;;;;;7.20;4.40;;;30.20;90.10;;;30.91;48.56;94843.19;4962297;28;20226;-63
2023/07/06 07:55:53;;;;;;;6.38;5.07;;;30.20;90.00;;;30.97;47.94;94846.72;4963329;28;20239;-63
2023/07/06 07:58:22;;;;;;;5.83;4.40;;;30.30;89.90;;;31.02;48.21;94844.84;4963397;28;20200;-63
2023/07/06 08:00:49;;;;;;;4.40;4.10;;;30.30;89.40;;;31.17;48.02;94854.94;4959985;28;20333;-62
2023/07/06 08:03:18;;;;;;;4.47;4.18;;;30.40;89.40;;;31.35;48.03;94855.47;4961593;28;20676;-64
2023/07/06 08:05:46;;;;;;;5.82;4.35;;;30.60;89.10;;;31.54;47.50;94845.75;4959066;28;20772;-63
2023/07/06 08:08:13;;;;;;;8.02;3.95;;;30.80;88.50;;;31.75;47.41;94851.94;4955973;28;20207;-65
2023/07/06 08:10:41;;;;;;;5.90;4.88;;;31.00;87.60;;;31.93;46.86;94849.75;4963352;28;20234;-66
2023/07/06 08:13:09;;;;;;;6.28;4.70;;;31.20;86.40;;;31.98;46.47;94849.75;4960959;28;20268;-64
2023/07/06 08:15:38;;;;;;;4.75;4.43;;;31.30;85.40;;;32.09;46.54;94851.38;4961637;28;20242;-66
2023/07/06 08:18:06;;;;;;;7.15;5.00;;;31.40;85.30;;;32.24;45.92;94850.53;4959349;28;20318;-64
2023/07/06 08:20:34;;;;;;;7.43;5.40;;;31.50;84.30;;;32.40;45.33;94854.00;4962093;28;20228;-65
2023/07/06 08:23:02;;;;;;;4.65;4.25;;;31.70;83.50;;;32.37;45.00;94851.84;4961405;28;20211;-63
2023/07/06 08:25:33;;;;;;;4.85;4.55;;;31.70;81.90;;;32.27;45.38;94844.53;4961842;28;20223;-66
2023/07/06 08:28:01;;;;;;;5.00;4.70;;;31.70;81.90;;;32.37;45.16;94849.09;4962726;28;20212;-65
2023/07/06 08:30:28;;;;;;;5.07;4.57;;;31.60;81.70;;;32.54;45.09;94846.03;4958194;28;20225;-63
2023/07/06 08:32:56;;;;;;;11.95;5.40;;;31.80;81.30;;;32.69;44.97;94839.75;4965070;28;20230;-67
2023/07/06 08:35:23;;;;;;;8.27;4.78;;;31.90;81.30;;;32.88;44.97;94846.16;4962253;28;20292;-64
2023/07/06 08:37:52;;;;;;;5.53;5.07;;;32.10;80.40;;;32.98;44.42;94841.75;4958207;28;20278;-62
2023/07/06 08:40:20;;;;;;;5.15;4.40;;;32.20;79.00;;;33.02;44.35;94846.34;4960626;28;20231;-64
2023/07/06 08:42:47;;;;;;;4.90;4.60;;;32.30;79.10;;;33.23;43.84;94847.06;4964423;28;20208;-64
2023/07/06 08:45:17;;;;;;;5.35;4.90;;;32.40;78.80;;;33.48;43.71;94847.97;4961551;28;20231;-63
2023/07/06 08:47:45;;;;;;;8.35;4.80;;;32.70;78.30;;;33.66;43.50;94845.63;4963716;28;20230;-65
2023/07/06 08:50:15;;;;;;;7.18;5.03;;;32.90;77.10;;;33.74;42.72;94842.28;4962332;28;20228;-66
2023/07/06 08:52:42;;;;;;;5.75;4.75;;;33.00;76.10;;;33.72;42.17;94839.06;4959759;28;20701;-64
2023/07/06 08:55:15;;;;;;;10.63;5.70;;;33.00;74.30;;;33.61;42.55;94838.31;4966983;28;20260;-63
2023/07/06 08:57:42;;;;;;;5.95;5.18;;;32.90;73.80;;;33.44;42.16;94844.16;4965543;28;20207;-63
2023/07/06 09:00:19;;;;;;;5.40;5.03;;;32.80;73.20;;;33.24;41.95;94837.78;4962037;28;20231;-64
2023/07/06 09:02:48;;;;;;;10.07;5.05;;;32.70;72.80;;;33.21;42.73;94840.25;4960561;28;20223;-62
2023/07/06 09:05:16;;;;;;;5.75;5.25;;;32.60;73.80;;;33.17;42.69;94841.88;4965361;28;20223;-66
2023/07/06 09:07:44;;;;;;;9.38;5.13;;;32.60;73.70;;;33.22;43.44;94837.25;4962960;28;20206;-64
2023/07/06 09:10:14;;;;;;;4.68;4.28;;;32.50;74.60;;;33.42;43.35;94840.94;4961569;28;20223;-64
2023/07/06 09:12:41;;;;;;;5.03;4.63;;;32.70;74.80;;;33.67;42.80;94837.16;4959483;28;20752;-64
2023/07/06 09:15:09;;;;;;;9.13;5.00;;;32.90;74.20;;;33.95;41.93;94838.28;4961349;28;20244;-65
2023/07/06 09:17:46;;;;;;;5.10;4.70;;;33.10;72.90;;;34.21;42.37;94835.28;4958581;28;20217;-66
2023/07/06 09:20:15;;;;;;;7.45;4.93;;;33.40;73.10;;;34.29;41.96;94831.91;4961718;28;20654;-63
2023/07/06 09:22:42;;;;;;;13.48;5.28;;;33.50;72.00;;;34.23;41.43;94835.78;4958357;28;20207;-64
2023/07/06 09:25:17;;;;;;;9.20;5.57;;;33.50;72.00;;;34.17;41.25;94834.22;4959932;28;20251;-66
2023/07/06 09:27:47;;;;;;;13.45;5.45;;;33.50;71.30;;;33.98;42.22;94836.09;4961728;28;20200;-67
2023/07/06 09:30:29;;;;;;;18.70;4.85;;;33.40;71.00;;;33.74;40.90;94836.84;4960046;28;20235;-61
2023/07/06 09:33:05;;;;;;;10.45;5.28;;;33.20;69.40;;;33.50;42.29;94832.13;4957964;28;20579;-64
2023/07/06 09:35:35;;;;;;;8.07;4.90;;;33.00;70.80;;;33.32;42.60;94832.81;4958015;28;20275;-66
2023/07/06 09:38:04;;;;;;;5.10;4.70;;;32.80;71.50;;;33.18;42.55;94824.44;4957373;28;20592;-66
2023/07/06 09:40:33;;;;;;;7.22;5.53;;;32.60;71.30;;;33.14;43.02;94829.66;4959190;28;20228;-66
2023/07/06 09:43:00;;;;;;;6.13;4.82;;;32.50;71.50;;;33.17;43.11;94829.09;4961053;28;20665;-63
2023/07/06 09:45:29;;;;;;;7.95;4.25;;;32.50;72.00;;;33.35;42.86;94830.31;4958596;28;20302;-66
2023/07/06 09:47:58;;;;;;;5.13;4.63;;;32.60;71.30;;;33.57;42.33;94826.31;4962074;28;20204;-67
2023/07/06 09:50:32;;;;;;;7.63;5.43;;;32.80;71.50;;;33.57;41.50;94827.16;4961527;28;20224;-64
2023/07/06 09:53:00;;;;;;;7.97;4.32;;;32.80;70.00;;;33.62;41.21;94815.38;4958290;28;20621;-63
2023/07/06 09:55:30;;;;;;;5.10;4.70;;;32.90;69.80;;;33.79;40.27;94814.16;4963447;28;20243;-65
2023/07/06 09:57:59;;;;;;;5.85;4.15;;;33.00;68.40;;;33.95;40.52;94815.63;4961496;28;20208;-65
2023/07/06 10:00:34;;;;;;;8.05;3.90;;;33.10;68.00;;;34.13;39.64;94809.41;4962014;28;20557;-64
2023/07/06 10:03:25;;;;;;;5.43;4.93;;;33.30;66.40;;;34.27;40.77;94815.03;4956777;28;20204;-67
2023/07/06 10:05:56;;;;;;;4.88;4.57;;;33.50;67.70;;;34.28;40.48;94807.63;4957676;28;20365;-64
2023/07/06 10:08:28;;;;;;;5.20;4.80;;;33.50;66.90;;;34.22;40.52;94803.31;4959872;28;20203;-65
2023/07/06 10:11:04;;;;;;;9.65;4.68;;;33.50;66.20;;;34.26;40.27;94794.28;4956508;28;20298;-63
2023/07/06 10:13:38;;;;;;;4.93;4.53;;;33.50;67.10;;;34.37;40.05;94805.09;4961119;28;20642;-66
2023/07/06 10:16:17;;;;;;;7.15;5.35;;;33.70;66.70;;;34.49;39.19;94802.75;4958510;28;20236;-63
2023/07/06 10:18:50;;;;;;;9.02;5.32;;;33.70;65.80;;;34.53;38.97;94802.97;4957918;28;20199;-65
2023/07/06 10:21:22;;;;;;;6.05;4.65;;;33.80;64.90;;;34.55;39.19;94806.19;4959623;28;20265;-63
2023/07/06 10:24:08;;;;;;;6.80;4.63;;;33.80;64.20;;;34.55;39.10;94807.03;4956942;28;20207;-66
2023/07/06 10:26:37;;;;;;;5.60;4.93;;;33.80;65.20;;;34.57;40.40;94804.81;4957135;28;20203;-63